createdAt,value
2019-04-10T00:01:45.151Z,11.40
2019-04-10T00:06:48.483Z,10.47
2019-04-10T00:11:51.856Z,15.80
2019-04-10T00:16:56.342Z,16.47
2019-04-10T00:21:59.845Z,11.53
2019-04-10T00:27:04.075Z,11.65
2019-04-10T00:32:07.781Z,13.63
2019-04-10T00:37:21.854Z,16.20
2019-04-10T00:42:16.863Z,14.97
2019-04-10T00:47:21.146Z,15.05
2019-04-10T00:52:24.504Z,13.93
2019-04-10T00:57:27.818Z,14.33
2019-04-10T01:02:31.110Z,14.70
2019-04-10T01:07:39.541Z,15.73
2019-04-10T01:12:40.438Z,15.37
2019-04-10T03:21:29.605Z,13.60
2019-04-10T03:26:33.697Z,13.03
2019-04-10T03:31:38.943Z,14.37
2019-04-10T03:36:44.012Z,13.97
2019-04-10T03:41:48.387Z,15.83
2019-04-10T03:46:52.761Z,14.63
2019-04-10T03:51:57.007Z,13.97
2019-04-10T03:57:00.445Z,15.20
2019-04-10T04:02:03.720Z,14.23
2019-04-10T04:07:07.121Z,14.53
2019-04-10T04:12:10.576Z,14.77
2019-04-10T04:17:13.880Z,14.60
2019-04-10T04:22:17.190Z,15.23
2019-04-10T04:27:21.405Z,13.77
2019-04-10T04:32:25.865Z,14.47
2019-04-10T04:37:30.090Z,18.33
2019-04-10T04:42:33.540Z,15.60
2019-04-10T04:47:36.831Z,13.50
2019-04-10T04:52:41.104Z,15.77
2019-04-10T04:57:45.023Z,13.50
2019-04-10T05:02:48.391Z,14.57
2019-04-10T05:07:59.247Z,12.80
2019-04-10T05:12:57.845Z,13.40
2019-04-10T05:18:02.029Z,13.83
2019-04-10T05:23:08.198Z,13.90
2019-04-10T05:28:11.481Z,15.63
2019-04-10T05:33:14.776Z,15.37
2019-04-10T05:38:18.745Z,15.13
2019-04-10T05:43:22.057Z,14.20
2019-04-10T05:48:26.388Z,14.90
2019-04-10T05:53:29.734Z,16.40
2019-04-10T05:58:33.957Z,15.50
2019-04-10T06:03:37.267Z,16.27
2019-04-10T06:08:41.478Z,13.50
2019-04-10T06:13:45.205Z,13.97
2019-04-10T06:18:48.514Z,16.93
2019-04-10T06:23:51.897Z,15.30
2019-04-10T06:28:55.203Z,19.07
2019-04-10T06:33:58.520Z,17.97
2019-04-10T06:39:02.675Z,15.50
2019-04-10T06:44:05.990Z,14.60
2019-04-10T06:49:09.396Z,14.83
2019-04-10T06:54:13.023Z,14.50
2019-04-10T06:59:16.696Z,16.63
2019-04-10T07:04:24.213Z,16.43
2019-04-10T07:09:26.959Z,15.60
2019-04-10T07:14:29.994Z,14.97
2019-04-10T07:19:34.229Z,13.95
2019-04-10T07:24:41.160Z,17.90
2019-04-10T07:29:42.799Z,17.80
2019-04-10T07:34:46.737Z,19.83
2019-04-10T07:39:50.964Z,14.23
2019-04-10T07:44:56.341Z,17.07
2019-04-10T07:50:01.405Z,15.83
2019-04-10T07:55:06.567Z,16.43
2019-04-10T08:00:11.712Z,17.93
2019-04-10T08:05:15.006Z,18.47
2019-04-10T08:10:18.302Z,18.63
2019-04-10T08:15:21.596Z,17.40
2019-04-10T08:20:26.037Z,17.43
2019-04-10T08:25:29.409Z,17.40
2019-04-10T08:30:34.219Z,17.90
2019-04-10T08:35:37.867Z,19.97
2019-04-10T08:40:41.255Z,17.30
2019-04-10T08:45:48.400Z,20.23
2019-04-10T08:50:50.335Z,19.53
2019-04-10T08:55:54.593Z,20.13
2019-04-10T09:00:58.708Z,19.47
2019-04-10T09:06:02.923Z,16.13
2019-04-10T09:11:07.136Z,18.57
2019-04-10T09:16:10.555Z,21.83
2019-04-10T09:21:13.864Z,21.60
2019-04-10T09:26:17.184Z,21.60
2019-04-10T09:31:20.495Z,19.97
2019-04-10T09:36:24.882Z,19.70
2019-04-10T09:41:28.192Z,19.60
2019-04-10T09:46:31.508Z,20.73
2019-04-10T09:51:34.793Z,18.53
2019-04-10T09:56:38.560Z,18.10
2019-04-10T10:01:42.273Z,20.30
2019-04-10T10:06:45.597Z,20.43
2019-04-10T10:11:49.166Z,17.60
2019-04-10T10:16:52.663Z,22.67
2019-04-10T10:21:56.807Z,19.87
2019-04-10T10:27:00.225Z,19.63
2019-04-10T10:32:04.540Z,18.67
2019-04-10T10:37:08.366Z,19.57
2019-04-10T10:42:11.774Z,18.20
2019-04-10T10:47:15.887Z,18.83
2019-04-10T10:52:19.463Z,17.73
2019-04-10T10:57:22.828Z,18.33
2019-04-10T11:02:26.258Z,21.10
2019-04-10T11:07:31.026Z,20.67
2019-04-10T11:12:35.547Z,20.03
2019-04-10T11:17:40.507Z,20.10
2019-04-10T11:22:44.687Z,21.33
2019-04-10T11:27:48.156Z,19.97
2019-04-10T11:32:52.430Z,18.20
2019-04-10T11:37:59.027Z,18.80
2019-04-10T11:43:03.867Z,19.93
2019-04-10T11:48:06.063Z,17.80
2019-04-10T11:53:10.435Z,18.27
2019-04-10T12:03:19.034Z,22.10
2019-04-10T12:08:45.152Z,18.20
2019-04-10T12:13:27.411Z,19.00
2019-04-10T12:18:30.820Z,21.90
2019-04-10T12:23:34.719Z,17.30
2019-04-10T12:28:38.206Z,19.53
2019-04-10T12:33:42.453Z,18.53
2019-04-10T12:38:45.750Z,17.33
2019-04-10T12:43:49.336Z,22.17
2019-04-10T12:48:52.766Z,21.50
2019-04-10T12:53:56.204Z,20.70
2019-04-10T12:58:59.454Z,21.57
2019-04-10T13:04:03.420Z,18.10
2019-04-10T13:09:12.007Z,18.33
2019-04-10T13:14:12.613Z,16.87
2019-04-10T13:19:16.599Z,18.73
2019-04-10T13:24:19.930Z,18.63
2019-04-10T13:29:23.236Z,15.97
2019-04-10T13:34:26.997Z,18.83
2019-04-10T13:39:31.650Z,18.10
2019-04-10T13:44:34.962Z,18.33
2019-04-10T13:49:38.537Z,20.20
2019-04-10T13:54:42.915Z,17.35
2019-04-10T13:59:46.993Z,18.17
2019-04-10T14:04:51.196Z,18.77
2019-04-10T14:09:54.653Z,23.20
2019-04-10T14:14:57.942Z,19.07
2019-04-10T14:20:01.253Z,18.93
2019-04-10T14:25:07.428Z,14.60
2019-04-10T14:30:15.324Z,16.33
2019-04-10T14:35:19.123Z,15.87
2019-04-10T14:40:22.495Z,14.63
2019-04-10T14:45:25.802Z,18.50
2019-04-10T14:50:29.514Z,16.90
2019-04-10T14:55:33.424Z,14.47
2019-04-10T15:00:39.175Z,14.77
2019-04-10T15:05:49.241Z,15.13
2019-04-10T15:10:47.712Z,15.73
2019-04-10T15:15:51.063Z,15.97
2019-04-10T15:20:54.460Z,14.40
2019-04-10T15:25:57.754Z,15.73
2019-04-10T15:31:01.408Z,15.20
2019-04-10T15:36:04.827Z,15.50
2019-04-10T15:41:08.473Z,15.50
2019-04-10T15:46:12.837Z,16.97
2019-04-10T15:51:16.271Z,18.97
2019-04-10T15:56:20.449Z,14.73
2019-04-10T16:01:26.607Z,14.00
2019-04-10T16:06:29.383Z,16.50
2019-04-10T16:11:43.821Z,15.67
2019-04-10T16:17:04.725Z,14.90
2019-04-10T16:22:10.559Z,18.27
2019-04-10T16:27:14.036Z,15.33
2019-04-10T16:32:17.418Z,15.17
2019-04-10T16:37:20.726Z,17.93
2019-04-10T16:42:24.438Z,15.33
2019-04-10T16:47:28.266Z,14.23
2019-04-10T16:52:31.598Z,15.30
2019-04-10T16:57:34.952Z,14.70
2019-04-10T17:02:38.262Z,13.83
2019-04-10T17:07:41.577Z,16.10
2019-04-10T17:12:44.878Z,15.93
2019-04-10T17:17:48.191Z,16.27
2019-04-10T17:22:52.065Z,15.35
2019-04-10T17:27:56.331Z,14.03
2019-04-10T17:33:00.636Z,16.17
2019-04-10T17:38:04.605Z,15.40
2019-04-10T17:43:08.565Z,14.23
2019-04-10T17:48:12.023Z,20.07
2019-04-10T17:53:17.212Z,16.93
2019-04-10T17:58:21.297Z,16.03
2019-04-10T18:03:25.493Z,14.23
2019-04-10T18:08:30.126Z,15.23
2019-04-10T18:13:34.153Z,16.47
2019-04-10T18:18:37.971Z,14.60
2019-04-10T18:23:41.924Z,14.73
2019-04-10T18:28:45.649Z,15.00
2019-04-10T18:33:49.022Z,15.00
2019-04-10T18:38:52.678Z,15.50
2019-04-10T18:43:58.473Z,14.90
2019-04-10T18:49:03.168Z,14.43
2019-04-10T18:54:08.005Z,14.87
2019-04-10T18:59:13.260Z,12.80
2019-04-10T19:04:30.737Z,13.43
2019-04-10T19:09:36.805Z,13.93
2019-04-10T19:14:40.624Z,12.97
2019-04-10T19:19:45.365Z,13.00
2019-04-10T19:24:50.201Z,14.63
2019-04-10T19:29:53.611Z,10.60
2019-04-10T19:34:57.220Z,9.20
2019-04-10T19:40:00.619Z,8.37
2019-04-10T19:45:05.968Z,7.43
2019-04-10T19:50:09.365Z,7.53
2019-04-10T19:55:13.569Z,7.87
2019-04-10T20:00:20.008Z,6.33
2019-04-10T20:05:23.456Z,5.07
2019-04-10T20:10:27.603Z,6.30
2019-04-10T20:15:31.098Z,6.40
2019-04-10T20:20:35.808Z,5.33
2019-04-10T20:25:39.130Z,5.33
2019-04-10T20:30:44.516Z,5.37
2019-04-10T20:35:48.797Z,4.50
2019-04-10T20:40:52.213Z,4.35
2019-04-10T20:45:55.943Z,4.23
2019-04-10T20:50:59.260Z,3.70
2019-04-10T20:56:02.577Z,4.10
2019-04-10T21:01:06.114Z,4.27
2019-04-10T21:06:09.517Z,4.40
2019-04-10T21:11:13.863Z,3.43
2019-04-10T21:16:17.711Z,4.53
2019-04-10T21:21:22.194Z,4.17
2019-04-10T21:26:25.645Z,4.57
2019-04-10T21:31:48.953Z,5.23
2019-04-10T21:36:53.307Z,4.13
2019-04-10T21:42:09.337Z,4.00
2019-04-10T21:47:01.907Z,4.20
2019-04-10T21:52:05.748Z,5.63
2019-04-10T21:57:09.675Z,4.10
2019-04-10T22:02:15.127Z,4.60
2019-04-10T22:07:34.837Z,4.27
2019-04-10T22:12:43.797Z,4.37
2019-04-10T22:17:44.564Z,5.70
2019-04-10T22:22:47.903Z,4.70
2019-04-10T22:27:52.205Z,5.27
2019-04-10T22:32:55.705Z,5.60
2019-04-10T22:37:58.942Z,5.30
2019-04-10T22:43:03.279Z,4.77
2019-04-10T22:48:06.613Z,5.53
2019-04-10T22:53:09.903Z,4.87
2019-04-10T22:58:13.199Z,5.65
2019-04-10T23:03:16.490Z,4.87
2019-04-10T23:08:19.877Z,5.00
2019-04-10T23:13:23.763Z,5.17
2019-04-10T23:18:27.607Z,4.70
2019-04-10T23:23:32.790Z,5.33
2019-04-10T23:28:36.191Z,6.10
2019-04-10T23:33:39.881Z,4.27
2019-04-10T23:38:43.782Z,8.10
2019-04-10T23:43:48.094Z,5.57
2019-04-10T23:48:51.528Z,6.17
2019-04-10T23:53:55.077Z,6.20
2019-04-10T23:58:58.444Z,6.47
